sensor_id;sensor_type;location;lat;lon;timestamp;pressure;altitude;pressure_sealevel;temperature;humidity
64064;BME280;50314;50.618;10.642;2023-02-13T00:02:11;98703.75;;;17.41;20.92
64064;BME280;50314;50.618;10.642;2023-02-13T00:04:38;98699.41;;;17.40;20.79
64064;BME280;50314;50.618;10.642;2023-02-13T00:07:03;98691.50;;;17.38;20.81
64064;BME280;50314;50.618;10.642;2023-02-13T00:09:29;98695.97;;;17.38;20.94
64064;BME280;50314;50.618;10.642;2023-02-13T00:11:54;98699.63;;;17.37;20.75
64064;BME280;50314;50.618;10.642;2023-02-13T00:14:20;98696.09;;;17.36;20.83
64064;BME280;50314;50.618;10.642;2023-02-13T00:16:45;98690.88;;;17.35;20.79
64064;BME280;50314;50.618;10.642;2023-02-13T00:19:10;98694.50;;;17.34;20.84
64064;BME280;50314;50.618;10.642;2023-02-13T00:21:36;98693.66;;;17.33;20.75
64064;BME280;50314;50.618;10.642;2023-02-13T00:24:01;98687.56;;;17.31;20.75
64064;BME280;50314;50.618;10.642;2023-02-13T00:26:27;98694.59;;;17.32;20.83
64064;BME280;50314;50.618;10.642;2023-02-13T00:28:52;98685.03;;;17.30;21.06
64064;BME280;50314;50.618;10.642;2023-02-13T00:31:20;98680.66;;;17.29;20.85
64064;BME280;50314;50.618;10.642;2023-02-13T00:33:46;98690.44;;;17.28;20.94
64064;BME280;50314;50.618;10.642;2023-02-13T00:36:13;98690.56;;;17.27;20.96
64064;BME280;50314;50.618;10.642;2023-02-13T00:38:40;98685.34;;;17.25;20.81
64064;BME280;50314;50.618;10.642;2023-02-13T00:41:06;98685.47;;;17.24;20.78
64064;BME280;50314;50.618;10.642;2023-02-13T00:43:32;98687.28;;;17.23;20.96
64064;BME280;50314;50.618;10.642;2023-02-13T00:45:59;98688.22;;;17.22;21.02
64064;BME280;50314;50.618;10.642;2023-02-13T00:48:26;98687.47;;;17.20;20.81
64064;BME280;50314;50.618;10.642;2023-02-13T00:50:52;98687.47;;;17.20;21.00
64064;BME280;50314;50.618;10.642;2023-02-13T00:53:18;98688.53;;;17.18;20.97
64064;BME280;50314;50.618;10.642;2023-02-13T00:55:44;98696.53;;;17.18;20.85
64064;BME280;50314;50.618;10.642;2023-02-13T00:58:10;98693.13;;;17.16;20.98
64064;BME280;50314;50.618;10.642;2023-02-13T01:00:36;98693.22;;;17.14;20.94
64064;BME280;50314;50.618;10.642;2023-02-13T01:03:02;98694.19;;;17.13;20.98
64064;BME280;50314;50.618;10.642;2023-02-13T01:05:27;98690.69;;;17.12;20.84
64064;BME280;50314;50.618;10.642;2023-02-13T01:07:55;98691.84;;;17.08;21.02
64064;BME280;50314;50.618;10.642;2023-02-13T01:10:21;98698.03;;;17.09;20.95
64064;BME280;50314;50.618;10.642;2023-02-13T01:12:46;98697.16;;;17.08;21.07
64064;BME280;50314;50.618;10.642;2023-02-13T01:15:11;98696.31;;;17.08;21.01
64064;BME280;50314;50.618;10.642;2023-02-13T01:17:37;98698.13;;;17.07;20.92
64064;BME280;50314;50.618;10.642;2023-02-13T01:20:06;98689.38;;;17.05;20.97
64064;BME280;50314;50.618;10.642;2023-02-13T01:22:31;98694.81;;;17.04;20.96
64064;BME280;50314;50.618;10.642;2023-02-13T01:24:57;98688.75;;;17.02;21.05
64064;BME280;50314;50.618;10.642;2023-02-13T01:27:22;98683.41;;;17.02;21.05
64064;BME280;50314;50.618;10.642;2023-02-13T01:29:48;98687.06;;;17.01;20.94
64064;BME280;50314;50.618;10.642;2023-02-13T01:32:13;98687.25;;;16.98;20.98
64064;BME280;50314;50.618;10.642;2023-02-13T01:34:39;98687.25;;;16.98;21.10
64064;BME280;50314;50.618;10.642;2023-02-13T01:37:04;98682.91;;;16.97;20.97
64064;BME280;50314;50.618;10.642;2023-02-13T01:39:30;98684.72;;;16.96;21.27
64064;BME280;50314;50.618;10.642;2023-02-13T01:41:55;98677.78;;;16.94;21.12
64064;BME280;50314;50.618;10.642;2023-02-13T01:47:27;98673.63;;;16.89;21.14
64064;BME280;50314;50.618;10.642;2023-02-13T01:50:05;98681.84;;;16.86;21.07
64064;BME280;50314;50.618;10.642;2023-02-13T01:52:35;98674.56;;;16.88;21.10
64064;BME280;50314;50.618;10.642;2023-02-13T01:55:03;98681.72;;;16.88;21.13
64064;BME280;50314;50.618;10.642;2023-02-13T01:57:30;98679.16;;;16.86;21.11
64064;BME280;50314;50.618;10.642;2023-02-13T02:00:01;98685.47;;;16.85;21.09
64064;BME280;50314;50.618;10.642;2023-02-13T02:02:30;98688.22;;;16.84;21.03
64064;BME280;50314;50.618;10.642;2023-02-13T02:05:00;98687.34;;;16.83;21.05
64064;BME280;50314;50.618;10.642;2023-02-13T02:07:28;98676.84;;;16.82;21.15
64064;BME280;50314;50.618;10.642;2023-02-13T02:09:58;98683.94;;;16.81;21.16
64064;BME280;50314;50.618;10.642;2023-02-13T02:12:46;98680.72;;;16.76;21.33
64064;BME280;50314;50.618;10.642;2023-02-13T02:15:14;98675.19;;;16.79;21.09
64064;BME280;50314;50.618;10.642;2023-02-13T02:17:40;98678.78;;;16.78;21.27
64064;BME280;50314;50.618;10.642;2023-02-13T02:20:35;98678.28;;;16.73;21.27
64064;BME280;50314;50.618;10.642;2023-02-13T02:40:10;98680.81;;;16.62;21.41
64064;BME280;50314;50.618;10.642;2023-02-13T02:45:32;98679.09;;;16.61;21.24
64064;BME280;50314;50.618;10.642;2023-02-13T02:48:10;98677.41;;;16.60;21.33
64064;BME280;50314;50.618;10.642;2023-02-13T02:54:12;98664.22;;;16.58;21.33
64064;BME280;50314;50.618;10.642;2023-02-13T02:57:02;98662.41;;;16.59;21.29
64064;BME280;50314;50.618;10.642;2023-02-13T02:59:32;98661.44;;;16.60;21.39
64064;BME280;50314;50.618;10.642;2023-02-13T03:02:19;98665.91;;;16.59;21.41
64064;BME280;50314;50.618;10.642;2023-02-13T03:05:16;98661.00;;;16.53;21.35
64064;BME280;50314;50.618;10.642;2023-02-13T03:08:02;98666.97;;;16.57;21.28
64064;BME280;50314;50.618;10.642;2023-02-13T03:10:31;98667.81;;;16.57;21.48
64064;BME280;50314;50.618;10.642;2023-02-13T03:13:33;98670.78;;;16.53;21.39
64064;BME280;50314;50.618;10.642;2023-02-13T03:16:00;98674.09;;;16.56;21.36
64064;BME280;50314;50.618;10.642;2023-02-13T03:18:49;98672.59;;;16.52;21.42
64064;BME280;50314;50.618;10.642;2023-02-13T03:21:47;98676.94;;;16.53;21.41
64064;BME280;50314;50.618;10.642;2023-02-13T03:27:51;98679.38;;;16.43;21.52
64064;BME280;50314;50.618;10.642;2023-02-13T03:31:12;98682.03;;;16.43;21.56
64064;BME280;50314;50.618;10.642;2023-02-13T03:39:23;98678.31;;;16.46;21.52
64064;BME280;50314;50.618;10.642;2023-02-13T03:42:00;98671.41;;;16.43;21.53
64064;BME280;50314;50.618;10.642;2023-02-13T03:44:30;98671.19;;;16.47;21.54
64064;BME280;50314;50.618;10.642;2023-02-13T03:47:00;98669.28;;;16.49;21.45
64064;BME280;50314;50.618;10.642;2023-02-13T03:49:32;98676.31;;;16.50;21.53
64064;BME280;50314;50.618;10.642;2023-02-13T03:55:13;98673.22;;;16.43;21.45
64064;BME280;50314;50.618;10.642;2023-02-13T03:58:02;98681.94;;;16.45;21.77
64064;BME280;50314;50.618;10.642;2023-02-13T04:00:50;98679.28;;;16.45;21.58
64064;BME280;50314;50.618;10.642;2023-02-13T04:06:17;98673.97;;;16.45;21.53
64064;BME280;50314;50.618;10.642;2023-02-13T04:08:44;98673.09;;;16.44;21.45
64064;BME280;50314;50.618;10.642;2023-02-13T04:11:29;98675.22;;;16.39;21.59
64064;BME280;50314;50.618;10.642;2023-02-13T04:14:03;98666.28;;;16.40;21.59
64064;BME280;50314;50.618;10.642;2023-02-13T04:16:40;98672.34;;;16.42;21.54
64064;BME280;50314;50.618;10.642;2023-02-13T04:19:08;98674.81;;;16.46;21.61
64064;BME280;50314;50.618;10.642;2023-02-13T04:21:37;98667.56;;;16.48;21.50
64064;BME280;50314;50.618;10.642;2023-02-13T04:24:04;98673.84;;;16.47;21.40
64064;BME280;50314;50.618;10.642;2023-02-13T04:26:38;98675.75;;;16.44;21.42
64064;BME280;50314;50.618;10.642;2023-02-13T04:29:05;98672.16;;;16.46;21.46
64064;BME280;50314;50.618;10.642;2023-02-13T04:31:30;98675.75;;;16.44;21.50
64064;BME280;50314;50.618;10.642;2023-02-13T04:33:56;98674.91;;;16.44;21.42
64064;BME280;50314;50.618;10.642;2023-02-13T04:36:21;98676.72;;;16.43;21.56
64064;BME280;50314;50.618;10.642;2023-02-13T04:38:47;98676.72;;;16.43;21.47
64064;BME280;50314;50.618;10.642;2023-02-13T04:41:12;98675.03;;;16.42;21.55
64064;BME280;50314;50.618;10.642;2023-02-13T04:43:38;98668.72;;;16.43;21.66
64064;BME280;50314;50.618;10.642;2023-02-13T04:46:04;98666.19;;;16.42;21.46
64064;BME280;50314;50.618;10.642;2023-02-13T04:48:29;98668.00;;;16.41;21.50
64064;BME280;50314;50.618;10.642;2023-02-13T04:50:55;98668.00;;;16.41;21.48
64064;BME280;50314;50.618;10.642;2023-02-13T04:53:20;98657.38;;;16.41;21.50
64064;BME280;50314;50.618;10.642;2023-02-13T04:55:46;98665.34;;;16.41;21.48
64064;BME280;50314;50.618;10.642;2023-02-13T04:58:11;98654.72;;;16.41;21.48
64064;BME280;50314;50.618;10.642;2023-02-13T05:00:37;98657.38;;;16.41;21.49
64064;BME280;50314;50.618;10.642;2023-02-13T05:03:07;98660.13;;;16.40;21.55
64064;BME280;50314;50.618;10.642;2023-02-13T05:05:34;98657.44;;;16.40;21.53
64064;BME280;50314;50.618;10.642;2023-02-13T05:08:00;98660.97;;;16.40;21.47
64064;BME280;50314;50.618;10.642;2023-02-13T05:10:25;98662.78;;;16.40;21.54
64064;BME280;50314;50.618;10.642;2023-02-13T05:12:51;98656.59;;;16.39;21.56
64064;BME280;50314;50.618;10.642;2023-02-13T05:15:16;98654.03;;;16.38;21.68
64064;BME280;50314;50.618;10.642;2023-02-13T05:17:43;98657.56;;;16.38;21.57
64064;BME280;50314;50.618;10.642;2023-02-13T05:20:09;98650.53;;;16.37;21.68
64064;BME280;50314;50.618;10.642;2023-02-13T05:22:35;98657.56;;;16.38;21.59
64064;BME280;50314;50.618;10.642;2023-02-13T05:25:19;98659.47;;;16.36;21.50
64064;BME280;50314;50.618;10.642;2023-02-13T05:27:45;98662.25;;;16.35;21.51
64064;BME280;50314;50.618;10.642;2023-02-13T05:30:11;98664.91;;;16.35;21.60
64064;BME280;50314;50.618;10.642;2023-02-13T05:32:37;98666.69;;;16.34;21.61
64064;BME280;50314;50.618;10.642;2023-02-13T05:35:03;98668.59;;;16.32;21.72
64064;BME280;50314;50.618;10.642;2023-02-13T05:37:29;98666.69;;;16.34;21.60
64064;BME280;50314;50.618;10.642;2023-02-13T05:39:54;98667.66;;;16.33;21.63
64064;BME280;50314;50.618;10.642;2023-02-13T05:42:20;98666.78;;;16.33;21.56
64064;BME280;50314;50.618;10.642;2023-02-13T05:44:45;98657.97;;;16.32;21.71
64064;BME280;50314;50.618;10.642;2023-02-13T05:47:11;98658.81;;;16.33;21.63
64064;BME280;50314;50.618;10.642;2023-02-13T05:49:36;98670.41;;;16.32;21.69
64064;BME280;50314;50.618;10.642;2023-02-13T05:52:03;98665.09;;;16.32;21.65
64064;BME280;50314;50.618;10.642;2023-02-13T05:54:28;98669.56;;;16.31;21.61
64064;BME280;50314;50.618;10.642;2023-02-13T05:56:54;98667.84;;;16.30;21.66
64064;BME280;50314;50.618;10.642;2023-02-13T06:01:47;98674.00;;;16.31;21.69
64064;BME280;50314;50.618;10.642;2023-02-13T06:04:12;98672.31;;;16.30;21.69
64064;BME280;50314;50.618;10.642;2023-02-13T06:06:38;98679.44;;;16.29;21.58
64064;BME280;50314;50.618;10.642;2023-02-13T06:09:03;98676.78;;;16.29;21.74
64064;BME280;50314;50.618;10.642;2023-02-13T06:11:29;98674.13;;;16.29;21.63
64064;BME280;50314;50.618;10.642;2023-02-13T06:13:54;98675.09;;;16.28;21.62
64064;BME280;50314;50.618;10.642;2023-02-13T06:16:20;98681.25;;;16.29;21.70
64064;BME280;50314;50.618;10.642;2023-02-13T06:18:46;98680.28;;;16.30;21.73
64064;BME280;50314;50.618;10.642;2023-02-13T06:21:12;98683.91;;;16.29;21.69
64064;BME280;50314;50.618;10.642;2023-02-13T06:23:37;98685.72;;;16.28;21.61
64064;BME280;50314;50.618;10.642;2023-02-13T06:26:07;98682.31;;;16.26;21.66
64064;BME280;50314;50.618;10.642;2023-02-13T06:28:33;98684.00;;;16.27;21.61
64064;BME280;50314;50.618;10.642;2023-02-13T06:30:59;98689.31;;;16.27;21.74
64064;BME280;50314;50.618;10.642;2023-02-13T06:33:25;98688.47;;;16.27;21.68
64064;BME280;50314;50.618;10.642;2023-02-13T06:35:51;98686.66;;;16.27;21.62
64064;BME280;50314;50.618;10.642;2023-02-13T06:38:16;98686.66;;;16.27;21.70
64064;BME280;50314;50.618;10.642;2023-02-13T06:40:47;98685.81;;;16.27;21.53
64064;BME280;50314;50.618;10.642;2023-02-13T06:43:13;98690.41;;;16.25;21.58
64064;BME280;50314;50.618;10.642;2023-02-13T06:45:39;98696.56;;;16.25;21.68
64064;BME280;50314;50.618;10.642;2023-02-13T06:48:04;98696.66;;;16.24;21.62
64064;BME280;50314;50.618;10.642;2023-02-13T06:50:30;98697.50;;;16.24;21.63
64064;BME280;50314;50.618;10.642;2023-02-13T06:52:55;98701.97;;;16.24;21.76
64064;BME280;50314;50.618;10.642;2023-02-13T06:55:21;98700.25;;;16.23;21.78
64064;BME280;50314;50.618;10.642;2023-02-13T06:57:46;98699.41;;;16.22;21.68
64064;BME280;50314;50.618;10.642;2023-02-13T07:00:12;98702.06;;;16.22;21.67
64064;BME280;50314;50.618;10.642;2023-02-13T07:02:43;98702.16;;;16.20;21.82
64064;BME280;50314;50.618;10.642;2023-02-13T07:05:09;98708.25;;;16.23;21.54
64064;BME280;50314;50.618;10.642;2023-02-13T07:07:37;98710.06;;;16.22;21.70
64064;BME280;50314;50.618;10.642;2023-02-13T07:10:04;98714.41;;;16.23;21.63
64064;BME280;50314;50.618;10.642;2023-02-13T07:12:32;98716.31;;;16.21;21.89
64064;BME280;50314;50.618;10.642;2023-02-13T07:14:58;98712.78;;;16.20;21.68
64064;BME280;50314;50.618;10.642;2023-02-13T07:17:23;98717.19;;;16.22;21.83
64064;BME280;50314;50.618;10.642;2023-02-13T07:19:50;98723.34;;;16.22;21.80
64064;BME280;50314;50.618;10.642;2023-02-13T07:22:15;98721.63;;;16.21;21.77
64064;BME280;50314;50.618;10.642;2023-02-13T07:24:41;98725.16;;;16.22;21.79
64064;BME280;50314;50.618;10.642;2023-02-13T07:27:06;98725.16;;;16.22;21.81
64064;BME280;50314;50.618;10.642;2023-02-13T07:29:32;98719.84;;;16.22;21.93
64064;BME280;50314;50.618;10.642;2023-02-13T07:31:57;98717.06;;;16.23;21.93
64064;BME280;50314;50.618;10.642;2023-02-13T07:34:22;98726.84;;;16.23;22.03
64064;BME280;50314;50.618;10.642;2023-02-13T07:36:48;98718.75;;;16.24;22.31
64064;BME280;50314;50.618;10.642;2023-02-13T07:39:13;98719.63;;;16.25;22.02
64064;BME280;50314;50.618;10.642;2023-02-13T07:41:39;98718.75;;;16.24;22.25
64064;BME280;50314;50.618;10.642;2023-02-13T07:44:04;98723.16;;;16.25;22.23
64064;BME280;50314;50.618;10.642;2023-02-13T07:46:30;98718.69;;;16.26;22.24
64064;BME280;50314;50.618;10.642;2023-02-13T07:48:55;98716.88;;;16.26;22.24
64064;BME280;50314;50.618;10.642;2023-02-13T07:51:21;98718.56;;;16.27;22.21
64064;BME280;50314;50.618;10.642;2023-02-13T07:53:52;98715.91;;;16.27;22.32
64064;BME280;50314;50.618;10.642;2023-02-13T07:56:18;98720.28;;;16.28;22.30
64064;BME280;50314;50.618;10.642;2023-02-13T07:58:43;98722.00;;;16.29;22.37
64064;BME280;50314;50.618;10.642;2023-02-13T08:01:14;98721.13;;;16.29;22.29
64064;BME280;50314;50.618;10.642;2023-02-13T08:03:40;98713.91;;;16.31;22.17
64064;BME280;50314;50.618;10.642;2023-02-13T08:06:07;98713.91;;;16.31;22.18
64064;BME280;50314;50.618;10.642;2023-02-13T08:08:33;98712.00;;;16.33;22.29
64064;BME280;50314;50.618;10.642;2023-02-13T08:11:06;98710.31;;;16.32;22.28
64064;BME280;50314;50.618;10.642;2023-02-13T08:13:50;98714.53;;;16.34;22.28
64064;BME280;50314;50.618;10.642;2023-02-13T08:16:16;98715.31;;;16.36;22.15
64064;BME280;50314;50.618;10.642;2023-02-13T08:18:41;98713.50;;;16.37;22.07
64064;BME280;50314;50.618;10.642;2023-02-13T08:21:07;98714.25;;;16.39;22.12
64064;BME280;50314;50.618;10.642;2023-02-13T08:23:32;98712.44;;;16.39;22.09
64064;BME280;50314;50.618;10.642;2023-02-13T08:25:59;98712.44;;;16.39;22.05
64064;BME280;50314;50.618;10.642;2023-02-13T08:28:26;98714.06;;;16.42;22.03
64064;BME280;50314;50.618;10.642;2023-02-13T08:30:51;98717.56;;;16.42;22.13
64064;BME280;50314;50.618;10.642;2023-02-13T08:33:16;98720.13;;;16.44;22.24
64064;BME280;50314;50.618;10.642;2023-02-13T08:35:42;98717.38;;;16.46;22.10
64064;BME280;50314;50.618;10.642;2023-02-13T08:38:08;98720.75;;;16.48;22.05
64064;BME280;50314;50.618;10.642;2023-02-13T08:40:33;98722.50;;;16.49;22.15
64064;BME280;50314;50.618;10.642;2023-02-13T08:43:03;98717.06;;;16.50;22.04
64064;BME280;50314;50.618;10.642;2023-02-13T08:45:30;98726.66;;;16.53;22.14
64064;BME280;50314;50.618;10.642;2023-02-13T08:47:57;98718.66;;;16.53;22.03
64064;BME280;50314;50.618;10.642;2023-02-13T08:50:22;98716.00;;;16.53;22.06
64064;BME280;50314;50.618;10.642;2023-02-13T08:52:48;98729.19;;;16.54;22.18
64064;BME280;50314;50.618;10.642;2023-02-13T08:55:13;98725.59;;;16.55;22.02
64064;BME280;50314;50.618;10.642;2023-02-13T08:57:39;98727.28;;;16.56;21.93
64064;BME280;50314;50.618;10.642;2023-02-13T09:00:06;98719.31;;;16.56;21.75
64064;BME280;50314;50.618;10.642;2023-02-13T09:02:32;98725.47;;;16.57;21.73
64064;BME280;50314;50.618;10.642;2023-02-13T09:04:57;98728.97;;;16.57;21.68
64064;BME280;50314;50.618;10.642;2023-02-13T09:07:23;98724.50;;;16.58;21.87
64064;BME280;50314;50.618;10.642;2023-02-13T09:09:49;98733.38;;;16.58;21.79
64064;BME280;50314;50.618;10.642;2023-02-13T09:12:15;98732.50;;;16.58;21.84
64064;BME280;50314;50.618;10.642;2023-02-13T09:14:40;98735.91;;;16.60;21.75
64064;BME280;50314;50.618;10.642;2023-02-13T09:17:05;98727.94;;;16.60;21.79
64064;BME280;50314;50.618;10.642;2023-02-13T09:19:31;98733.13;;;16.61;21.84
64064;BME280;50314;50.618;10.642;2023-02-13T09:21:56;98736.69;;;16.62;21.91
64064;BME280;50314;50.618;10.642;2023-02-13T09:24:22;98742.72;;;16.64;21.88
64064;BME280;50314;50.618;10.642;2023-02-13T09:26:47;98735.50;;;16.66;21.79
64064;BME280;50314;50.618;10.642;2023-02-13T09:29:13;98732.84;;;16.66;21.85
64064;BME280;50314;50.618;10.642;2023-02-13T09:31:38;98738.06;;;16.67;21.89
64064;BME280;50314;50.618;10.642;2023-02-13T09:34:04;98736.16;;;16.70;21.79
64064;BME280;50314;50.618;10.642;2023-02-13T09:36:29;98738.69;;;16.71;21.80
64064;BME280;50314;50.618;10.642;2023-02-13T09:38:56;98737.78;;;16.72;21.87
64064;BME280;50314;50.618;10.642;2023-02-13T09:41:31;98731.47;;;16.73;21.94
64064;BME280;50314;50.618;10.642;2023-02-13T09:47:33;98734.47;;;16.68;21.87
64064;BME280;50314;50.618;10.642;2023-02-13T09:50:13;98742.31;;;16.70;21.95
64064;BME280;50314;50.618;10.642;2023-02-13T09:52:43;98741.16;;;16.74;22.00
64064;BME280;50314;50.618;10.642;2023-02-13T09:55:18;98741.16;;;16.74;22.03
64064;BME280;50314;50.618;10.642;2023-02-13T09:58:08;98745.56;;;16.75;22.07
64064;BME280;50314;50.618;10.642;2023-02-13T10:00:45;98742.66;;;16.78;22.04
64064;BME280;50314;50.618;10.642;2023-02-13T10:03:31;98738.13;;;16.80;22.14
64064;BME280;50314;50.618;10.642;2023-02-13T10:14:29;98738.88;;;16.95;22.26
64064;BME280;50314;50.618;10.642;2023-02-13T10:17:16;98728.16;;;16.97;22.23
64064;BME280;50314;50.618;10.642;2023-02-13T10:22:45;98733.06;;;17.03;22.24
64064;BME280;50314;50.618;10.642;2023-02-13T10:25:16;98733.69;;;17.06;22.08
64064;BME280;50314;50.618;10.642;2023-02-13T10:27:54;98732.09;;;17.04;22.44
64064;BME280;50314;50.618;10.642;2023-02-13T10:30:25;98736.03;;;17.11;22.10
64064;BME280;50314;50.618;10.642;2023-02-13T10:33:03;98745.50;;;17.15;22.10
64064;BME280;50314;50.618;10.642;2023-02-13T10:35:49;98740.50;;;17.10;22.33
64064;BME280;50314;50.618;10.642;2023-02-13T10:38:19;98736.38;;;17.19;22.55
64064;BME280;50314;50.618;10.642;2023-02-13T10:43:19;98730.50;;;17.27;22.54
64064;BME280;50314;50.618;10.642;2023-02-13T10:51:08;98724.22;;;17.28;22.61
64064;BME280;50314;50.618;10.642;2023-02-13T10:54:20;98728.56;;;17.29;22.60
64064;BME280;50314;50.618;10.642;2023-02-13T10:57:18;98726.66;;;17.31;22.54
64064;BME280;50314;50.618;10.642;2023-02-13T11:02:28;98714.31;;;17.43;22.57
64064;BME280;50314;50.618;10.642;2023-02-13T11:05:16;98708.56;;;17.49;22.65
64064;BME280;50314;50.618;10.642;2023-02-13T11:07:46;98708.34;;;17.52;22.77
64064;BME280;50314;50.618;10.642;2023-02-13T11:10:23;98702.72;;;17.56;22.34
64064;BME280;50314;50.618;10.642;2023-02-13T11:12:49;98698.13;;;17.58;22.27
64064;BME280;50314;50.618;10.642;2023-02-13T11:15:30;98690.03;;;17.60;22.82
64064;BME280;50314;50.618;10.642;2023-02-13T11:18:20;98687.66;;;17.68;22.89
64064;BME280;50314;50.618;10.642;2023-02-13T11:20:46;98694.78;;;17.80;22.65
64064;BME280;50314;50.618;10.642;2023-02-13T11:28:31;98693.72;;;18.07;22.52
64064;BME280;50314;50.618;10.642;2023-02-13T11:31:25;98694.22;;;18.12;22.42
64064;BME280;50314;50.618;10.642;2023-02-13T11:33:52;98687.28;;;18.22;22.70
64064;BME280;50314;50.618;10.642;2023-02-13T11:36:32;98696.03;;;18.24;22.62
64064;BME280;50314;50.618;10.642;2023-02-13T11:39:04;98688.53;;;18.29;22.55
64064;BME280;50314;50.618;10.642;2023-02-13T11:41:39;98688.22;;;18.34;22.24
64064;BME280;50314;50.618;10.642;2023-02-13T11:44:21;98689.53;;;18.40;22.12
64064;BME280;50314;50.618;10.642;2023-02-13T11:46:52;98695.16;;;18.48;22.13
64064;BME280;50314;50.618;10.642;2023-02-13T11:49:22;98685.13;;;18.51;22.33
64064;BME280;50314;50.618;10.642;2023-02-13T11:51:51;98687.66;;;18.53;22.25
64064;BME280;50314;50.618;10.642;2023-02-13T11:54:38;98680.63;;;18.52;22.13
64064;BME280;50314;50.618;10.642;2023-02-13T11:57:21;98683.78;;;18.57;22.16
64064;BME280;50314;50.618;10.642;2023-02-13T11:59:48;98679.19;;;18.59;22.10
64064;BME280;50314;50.618;10.642;2023-02-13T12:02:18;98681.72;;;18.61;22.18
64064;BME280;50314;50.618;10.642;2023-02-13T12:04:44;98676.28;;;18.62;22.03
64064;BME280;50314;50.618;10.642;2023-02-13T12:10:33;98674.25;;;18.66;22.12
64064;BME280;50314;50.618;10.642;2023-02-13T12:15:22;98670.31;;;18.83;21.83
64064;BME280;50314;50.618;10.642;2023-02-13T12:20:36;98663.16;;;18.94;22.25
64064;BME280;50314;50.618;10.642;2023-02-13T12:23:19;98669.00;;;18.99;22.22
64064;BME280;50314;50.618;10.642;2023-02-13T12:39:33;98657.91;;;19.39;22.03
64064;BME280;50314;50.618;10.642;2023-02-13T12:45:00;98642.69;;;19.51;22.13
64064;BME280;50314;50.618;10.642;2023-02-13T12:47:37;98643.91;;;19.58;22.09
64064;BME280;50314;50.618;10.642;2023-02-13T13:01:50;98643.47;;;19.85;21.43
64064;BME280;50314;50.618;10.642;2023-02-13T13:07:35;98633.88;;;19.94;21.89
64064;BME280;50314;50.618;10.642;2023-02-13T13:12:49;98631.91;;;20.07;21.61
64064;BME280;50314;50.618;10.642;2023-02-13T13:20:55;98625.06;;;20.14;21.73
64064;BME280;50314;50.618;10.642;2023-02-13T13:26:40;98626.25;;;20.22;21.67
64064;BME280;50314;50.618;10.642;2023-02-13T13:29:10;98630.97;;;20.29;21.47
64064;BME280;50314;50.618;10.642;2023-02-13T13:31:37;98624.25;;;20.35;21.75
64064;BME280;50314;50.618;10.642;2023-02-13T13:34:06;98622.31;;;20.37;21.58
64064;BME280;50314;50.618;10.642;2023-02-13T13:41:42;98617.53;;;20.40;21.44
64064;BME280;50314;50.618;10.642;2023-02-13T13:44:37;98613.03;;;20.41;21.28
64064;BME280;50314;50.618;10.642;2023-02-13T13:50:23;98611.78;;;20.45;20.39
64064;BME280;50314;50.618;10.642;2023-02-13T13:53:15;98616.16;;;20.46;20.63
64064;BME280;50314;50.618;10.642;2023-02-13T14:03:39;98613.94;;;20.51;20.90
64064;BME280;50314;50.618;10.642;2023-02-13T14:06:09;98606.59;;;20.44;20.84
64064;BME280;50314;50.618;10.642;2023-02-13T14:11:34;98603.75;;;20.45;20.69
64064;BME280;50314;50.618;10.642;2023-02-13T14:14:01;98613.22;;;20.49;20.64
64064;BME280;50314;50.618;10.642;2023-02-13T14:16:42;98609.13;;;20.45;20.66
64064;BME280;50314;50.618;10.642;2023-02-13T14:21:51;98602.78;;;20.46;20.56
64064;BME280;50314;50.618;10.642;2023-02-13T14:24:18;98608.28;;;20.45;20.85
64064;BME280;50314;50.618;10.642;2023-02-13T14:26:56;98600.66;;;20.40;20.24
64064;BME280;50314;50.618;10.642;2023-02-13T14:29:28;98596.97;;;20.41;19.58
64064;BME280;50314;50.618;10.642;2023-02-13T14:32:04;98595.28;;;20.40;19.15
64064;BME280;50314;50.618;10.642;2023-02-13T14:34:34;98592.97;;;20.35;18.99
64064;BME280;50314;50.618;10.642;2023-02-13T14:37:23;98597.56;;;20.24;18.65
64064;BME280;50314;50.618;10.642;2023-02-13T14:42:49;98590.88;;;20.18;18.36
64064;BME280;50314;50.618;10.642;2023-02-13T14:45:19;98589.31;;;20.15;18.48
64064;BME280;50314;50.618;10.642;2023-02-13T14:47:49;98588.03;;;20.10;18.49
64064;BME280;50314;50.618;10.642;2023-02-13T14:50:43;98584.50;;;19.98;18.37
64064;BME280;50314;50.618;10.642;2023-02-13T14:53:26;98582.22;;;19.93;18.27
64064;BME280;50314;50.618;10.642;2023-02-13T14:55:56;98576.97;;;19.92;18.31
64064;BME280;50314;50.618;10.642;2023-02-13T14:58:27;98575.53;;;19.88;18.28
64064;BME280;50314;50.618;10.642;2023-02-13T15:01:02;98573.25;;;19.83;18.15
64064;BME280;50314;50.618;10.642;2023-02-13T15:03:48;98573.03;;;19.75;18.45
64064;BME280;50314;50.618;10.642;2023-02-13T15:06:24;98570.75;;;19.70;18.25
64064;BME280;50314;50.618;10.642;2023-02-13T15:08:52;98561.97;;;19.68;18.30
64064;BME280;50314;50.618;10.642;2023-02-13T15:11:31;98568.34;;;19.56;18.04
64064;BME280;50314;50.618;10.642;2023-02-13T15:14:20;98571.28;;;19.53;18.03
64064;BME280;50314;50.618;10.642;2023-02-13T15:16:50;98561.56;;;19.52;18.13
64064;BME280;50314;50.618;10.642;2023-02-13T15:19:18;98564.50;;;19.49;18.53
64064;BME280;50314;50.618;10.642;2023-02-13T15:21:48;98571.03;;;19.45;18.52
64064;BME280;50314;50.618;10.642;2023-02-13T15:24:15;98573.09;;;19.41;18.21
64064;BME280;50314;50.618;10.642;2023-02-13T15:26:40;98572.63;;;19.36;18.26
64064;BME280;50314;50.618;10.642;2023-02-13T15:29:15;98567.91;;;19.29;18.57
64064;BME280;50314;50.618;10.642;2023-02-13T15:31:41;98565.94;;;19.31;18.54
64064;BME280;50314;50.618;10.642;2023-02-13T15:34:30;98565.72;;;19.22;18.79
64064;BME280;50314;50.618;10.642;2023-02-13T15:36:58;98564.63;;;19.25;19.07
64064;BME280;50314;50.618;10.642;2023-02-13T15:39:27;98560.38;;;19.22;18.69